sensor_id;sensor_type;location;lat;lon;timestamp;pressure;altitude;pressure_sealevel;temperature;humidity
30708;BME280;17458;48.958;8.284;2023-06-04T00:00:59;100305.03;;;18.99;48.22
30708;BME280;17458;48.958;8.284;2023-06-04T00:03:43;100302.94;;;18.81;48.60
30708;BME280;17458;48.958;8.284;2023-06-04T00:06:28;100302.81;;;18.72;48.52
30708;BME280;17458;48.958;8.284;2023-06-04T00:09:11;100301.56;;;19.06;47.90
30708;BME280;17458;48.958;8.284;2023-06-04T00:11:55;100304.75;;;18.81;47.99
30708;BME280;17458;48.958;8.284;2023-06-04T00:14:39;100300.56;;;18.99;47.76
30708;BME280;17458;48.958;8.284;2023-06-04T00:17:23;100292.19;;;18.81;47.89
30708;BME280;17458;48.958;8.284;2023-06-04T00:20:07;100302.88;;;18.75;48.43
30708;BME280;17458;48.958;8.284;2023-06-04T00:22:51;100297.41;;;18.70;47.89
30708;BME280;17458;48.958;8.284;2023-06-04T00:25:35;100299.13;;;18.65;48.11
30708;BME280;17458;48.958;8.284;2023-06-04T00:28:20;100294.59;;;18.63;48.06
30708;BME280;17458;48.958;8.284;2023-06-04T00:31:05;100298.84;;;18.50;48.50
30708;BME280;17458;48.958;8.284;2023-06-04T00:33:50;100304.50;;;18.65;48.36
30708;BME280;17458;48.958;8.284;2023-06-04T00:36:34;100304.34;;;18.58;48.12
30708;BME280;17458;48.958;8.284;2023-06-04T00:39:18;100299.50;;;18.37;48.96
30708;BME280;17458;48.958;8.284;2023-06-04T00:42:02;100288.78;;;18.38;48.62
30708;BME280;17458;48.958;8.284;2023-06-04T00:44:46;100290.59;;;18.41;48.21
30708;BME280;17458;48.958;8.284;2023-06-04T00:47:31;100303.81;;;18.29;48.28
30708;BME280;17458;48.958;8.284;2023-06-04T00:50:15;100308.97;;;18.17;48.74
30708;BME280;17458;48.958;8.284;2023-06-04T00:52:59;100304.44;;;18.14;48.46
30708;BME280;17458;48.958;8.284;2023-06-04T00:55:43;100312.47;;;18.59;47.75
30708;BME280;17458;48.958;8.284;2023-06-04T00:58:27;100311.78;;;18.23;48.23
30708;BME280;17458;48.958;8.284;2023-06-04T01:04:26;100300.59;;;18.48;47.62
30708;BME280;17458;48.958;8.284;2023-06-04T01:07:14;100302.81;;;18.22;47.50
30708;BME280;17458;48.958;8.284;2023-06-04T01:09:59;100307.56;;;18.37;47.23
30708;BME280;17458;48.958;8.284;2023-06-04T01:12:43;100311.81;;;18.24;47.04
30708;BME280;17458;48.958;8.284;2023-06-04T01:15:27;100312.66;;;18.22;47.00
30708;BME280;17458;48.958;8.284;2023-06-04T01:18:15;100312.59;;;18.19;47.56
30708;BME280;17458;48.958;8.284;2023-06-04T01:21:11;100325.94;;;18.14;46.88
30708;BME280;17458;48.958;8.284;2023-06-04T01:24:04;100325.03;;;18.60;46.28
30708;BME280;17458;48.958;8.284;2023-06-04T01:26:49;100328.16;;;18.35;46.31
30708;BME280;17458;48.958;8.284;2023-06-04T01:29:35;100329.31;;;18.02;46.71
30708;BME280;17458;48.958;8.284;2023-06-04T01:32:20;100319.34;;;17.95;46.50
30708;BME280;17458;48.958;8.284;2023-06-04T01:35:08;100323.31;;;18.17;46.38
30708;BME280;17458;48.958;8.284;2023-06-04T01:37:54;100323.34;;;18.19;46.13
30708;BME280;17458;48.958;8.284;2023-06-04T01:40:38;100313.50;;;18.19;45.89
30708;BME280;17458;48.958;8.284;2023-06-04T01:43:22;100317.72;;;18.05;45.91
30708;BME280;17458;48.958;8.284;2023-06-04T01:46:06;100322.94;;;17.96;45.58
30708;BME280;17458;48.958;8.284;2023-06-04T01:48:51;100316.50;;;17.89;45.87
30708;BME280;17458;48.958;8.284;2023-06-04T01:51:35;100320.78;;;17.78;46.08
30708;BME280;17458;48.958;8.284;2023-06-04T01:54:19;100323.16;;;18.08;45.21
30708;BME280;17458;48.958;8.284;2023-06-04T01:57:03;100323.81;;;17.95;45.32
30708;BME280;17458;48.958;8.284;2023-06-04T01:59:48;100320.16;;;17.91;45.15
30708;BME280;17458;48.958;8.284;2023-06-04T02:02:32;100318.19;;;17.84;44.85
30708;BME280;17458;48.958;8.284;2023-06-04T02:05:16;100314.09;;;18.03;44.44
30708;BME280;17458;48.958;8.284;2023-06-04T02:08:00;100328.78;;;17.77;44.83
30708;BME280;17458;48.958;8.284;2023-06-04T02:10:46;100324.84;;;17.61;45.23
30708;BME280;17458;48.958;8.284;2023-06-04T02:13:31;100326.56;;;17.57;45.30
30708;BME280;17458;48.958;8.284;2023-06-04T02:16:14;100332.25;;;17.71;44.53
30708;BME280;17458;48.958;8.284;2023-06-04T02:18:58;100332.09;;;17.24;45.85
30708;BME280;17458;48.958;8.284;2023-06-04T02:21:43;100338.78;;;17.82;44.52
30708;BME280;17458;48.958;8.284;2023-06-04T02:24:27;100340.78;;;17.52;45.03
30708;BME280;17458;48.958;8.284;2023-06-04T02:27:12;100333.09;;;17.67;44.74
30708;BME280;17458;48.958;8.284;2023-06-04T02:29:56;100334.00;;;17.69;44.59
30708;BME280;17458;48.958;8.284;2023-06-04T02:32:40;100324.41;;;17.41;45.00
30708;BME280;17458;48.958;8.284;2023-06-04T02:35:24;100328.19;;;17.49;44.74
30708;BME280;17458;48.958;8.284;2023-06-04T02:38:08;100331.97;;;17.59;44.63
30708;BME280;17458;48.958;8.284;2023-06-04T02:40:52;100328.09;;;17.46;44.76
30708;BME280;17458;48.958;8.284;2023-06-04T02:43:36;100335.28;;;17.47;45.10
30708;BME280;17458;48.958;8.284;2023-06-04T02:46:20;100339.06;;;17.57;44.62
30708;BME280;17458;48.958;8.284;2023-06-04T02:49:05;100337.22;;;17.53;44.29
30708;BME280;17458;48.958;8.284;2023-06-04T02:51:49;100334.34;;;17.45;44.55
30708;BME280;17458;48.958;8.284;2023-06-04T02:54:34;100340.59;;;17.44;44.40
30708;BME280;17458;48.958;8.284;2023-06-04T02:57:18;100345.00;;;17.42;44.43
30708;BME280;17458;48.958;8.284;2023-06-04T03:00:03;100340.69;;;17.49;44.19
30708;BME280;17458;48.958;8.284;2023-06-04T03:02:55;100342.38;;;17.44;44.25
30708;BME280;17458;48.958;8.284;2023-06-04T03:05:44;100345.38;;;17.18;44.53
30708;BME280;17458;48.958;8.284;2023-06-04T03:08:29;100351.72;;;17.22;44.52
30708;BME280;17458;48.958;8.284;2023-06-04T03:11:13;100342.72;;;17.20;44.47
30708;BME280;17458;48.958;8.284;2023-06-04T03:13:57;100351.06;;;17.32;44.56
30708;BME280;17458;48.958;8.284;2023-06-04T03:16:41;100352.56;;;17.19;44.68
30708;BME280;17458;48.958;8.284;2023-06-04T03:19:27;100355.97;;;17.12;45.06
30708;BME280;17458;48.958;8.284;2023-06-04T03:22:11;100350.63;;;17.14;44.69
30708;BME280;17458;48.958;8.284;2023-06-04T03:24:55;100353.88;;;17.00;45.25
30708;BME280;17458;48.958;8.284;2023-06-04T03:27:39;100361.59;;;16.87;45.32
30708;BME280;17458;48.958;8.284;2023-06-04T03:30:24;100350.22;;;16.95;45.51
30708;BME280;17458;48.958;8.284;2023-06-04T03:33:15;100357.53;;;17.02;45.61
30708;BME280;17458;48.958;8.284;2023-06-04T03:35:58;100351.56;;;16.78;45.96
30708;BME280;17458;48.958;8.284;2023-06-04T03:38:45;100352.75;;;16.91;45.42
30708;BME280;17458;48.958;8.284;2023-06-04T03:41:30;100354.84;;;16.67;46.26
30708;BME280;17458;48.958;8.284;2023-06-04T03:44:16;100357.16;;;16.87;45.31
30708;BME280;17458;48.958;8.284;2023-06-04T03:47:01;100362.47;;;16.86;45.55
30708;BME280;17458;48.958;8.284;2023-06-04T03:49:45;100364.75;;;16.71;46.48
30708;BME280;17458;48.958;8.284;2023-06-04T03:52:29;100358.25;;;16.95;45.75
30708;BME280;17458;48.958;8.284;2023-06-04T03:55:16;100366.56;;;16.70;46.67
30708;BME280;17458;48.958;8.284;2023-06-04T03:58:01;100365.88;;;16.79;46.16
30708;BME280;17458;48.958;8.284;2023-06-04T04:00:46;100368.09;;;16.62;46.73
30708;BME280;17458;48.958;8.284;2023-06-04T04:03:31;100362.22;;;16.75;46.59
30708;BME280;17458;48.958;8.284;2023-06-04T04:06:18;100362.22;;;16.75;46.70
30708;BME280;17458;48.958;8.284;2023-06-04T04:09:02;100371.50;;;16.89;46.42
30708;BME280;17458;48.958;8.284;2023-06-04T04:11:47;100371.50;;;16.89;46.27
30708;BME280;17458;48.958;8.284;2023-06-04T04:14:32;100368.81;;;16.89;46.31
30708;BME280;17458;48.958;8.284;2023-06-04T04:17:17;100367.97;;;16.57;46.77
30708;BME280;17458;48.958;8.284;2023-06-04T04:20:01;100375.81;;;16.83;46.28
30708;BME280;17458;48.958;8.284;2023-06-04T04:22:48;100369.94;;;16.99;45.76
30708;BME280;17458;48.958;8.284;2023-06-04T04:25:33;100387.28;;;16.44;46.42
30708;BME280;17458;48.958;8.284;2023-06-04T04:28:19;100376.94;;;16.92;46.14
30708;BME280;17458;48.958;8.284;2023-06-04T04:31:04;100374.19;;;16.89;46.50
30708;BME280;17458;48.958;8.284;2023-06-04T04:33:51;100383.59;;;17.08;46.66
30708;BME280;17458;48.958;8.284;2023-06-04T04:36:36;100384.97;;;16.91;46.63
30708;BME280;17458;48.958;8.284;2023-06-04T04:39:25;100392.81;;;17.19;46.02
30708;BME280;17458;48.958;8.284;2023-06-04T04:42:11;100390.56;;;17.38;45.11
30708;BME280;17458;48.958;8.284;2023-06-04T04:44:55;100384.28;;;17.37;44.75
30708;BME280;17458;48.958;8.284;2023-06-04T04:47:42;100398.25;;;17.61;44.61
30708;BME280;17458;48.958;8.284;2023-06-04T04:50:26;100395.19;;;17.82;44.12
30708;BME280;17458;48.958;8.284;2023-06-04T04:53:11;100395.94;;;17.38;44.50
30708;BME280;17458;48.958;8.284;2023-06-04T04:55:57;100400.03;;;17.22;45.83
30708;BME280;17458;48.958;8.284;2023-06-04T04:58:41;100391.41;;;17.74;44.30
30708;BME280;17458;48.958;8.284;2023-06-04T05:01:26;100392.38;;;17.39;44.33
30708;BME280;17458;48.958;8.284;2023-06-04T05:04:14;100386.47;;;17.55;44.23
30708;BME280;17458;48.958;8.284;2023-06-04T05:06:58;100390.53;;;17.75;44.39
30708;BME280;17458;48.958;8.284;2023-06-04T05:09:42;100396.94;;;18.25;43.27
30708;BME280;17458;48.958;8.284;2023-06-04T05:12:30;100393.97;;;18.12;42.60
30708;BME280;17458;48.958;8.284;2023-06-04T05:15:14;100400.75;;;18.83;43.50
30708;BME280;17458;48.958;8.284;2023-06-04T05:18:02;100401.69;;;19.41;41.68
30708;BME280;17458;48.958;8.284;2023-06-04T05:20:50;100408.00;;;19.43;40.37
30708;BME280;17458;48.958;8.284;2023-06-04T05:23:35;100398.81;;;19.89;39.93
30708;BME280;17458;48.958;8.284;2023-06-04T05:26:21;100406.91;;;19.89;40.13
30708;BME280;17458;48.958;8.284;2023-06-04T05:29:08;100404.53;;;20.15;39.79
30708;BME280;17458;48.958;8.284;2023-06-04T05:31:55;100407.47;;;20.35;39.90
30708;BME280;17458;48.958;8.284;2023-06-04T05:34:40;100407.25;;;20.15;39.75
30708;BME280;17458;48.958;8.284;2023-06-04T05:37:25;100409.63;;;20.66;39.04
30708;BME280;17458;48.958;8.284;2023-06-04T05:40:13;100423.94;;;20.56;38.57
30708;BME280;17458;48.958;8.284;2023-06-04T05:42:58;100429.78;;;21.02;37.93
30708;BME280;17458;48.958;8.284;2023-06-04T05:45:42;100427.53;;;20.58;38.42
30708;BME280;17458;48.958;8.284;2023-06-04T05:48:26;100427.97;;;21.01;38.20
30708;BME280;17458;48.958;8.284;2023-06-04T05:51:13;100435.00;;;20.83;38.25
30708;BME280;17458;48.958;8.284;2023-06-04T05:53:58;100430.66;;;21.01;38.22
30708;BME280;17458;48.958;8.284;2023-06-04T05:56:42;100439.09;;;21.33;37.86
30708;BME280;17458;48.958;8.284;2023-06-04T05:59:26;100432.44;;;20.97;37.97
30708;BME280;17458;48.958;8.284;2023-06-04T06:02:10;100440.59;;;21.03;37.67
30708;BME280;17458;48.958;8.284;2023-06-04T06:04:56;100434.94;;;20.79;38.02
30708;BME280;17458;48.958;8.284;2023-06-04T06:07:40;100439.72;;;21.04;37.49
30708;BME280;17458;48.958;8.284;2023-06-04T06:10:24;100438.72;;;20.98;37.68
30708;BME280;17458;48.958;8.284;2023-06-04T06:13:11;100435.03;;;20.86;38.04
30708;BME280;17458;48.958;8.284;2023-06-04T06:15:56;100435.69;;;20.61;37.64
30708;BME280;17458;48.958;8.284;2023-06-04T06:18:41;100427.75;;;20.76;37.27
30708;BME280;17458;48.958;8.284;2023-06-04T06:21:24;100433.97;;;20.71;38.05
30708;BME280;17458;48.958;8.284;2023-06-04T06:24:09;100427.78;;;20.82;37.72
30708;BME280;17458;48.958;8.284;2023-06-04T06:26:54;100436.56;;;20.60;38.29
30708;BME280;17458;48.958;8.284;2023-06-04T06:29:38;100435.50;;;20.46;39.14
30708;BME280;17458;48.958;8.284;2023-06-04T06:32:24;100433.16;;;20.81;38.55
30708;BME280;17458;48.958;8.284;2023-06-04T06:35:08;100446.53;;;20.67;38.85
30708;BME280;17458;48.958;8.284;2023-06-04T06:37:52;100449.47;;;20.92;38.40
30708;BME280;17458;48.958;8.284;2023-06-04T06:40:36;100450.34;;;20.87;37.82
30708;BME280;17458;48.958;8.284;2023-06-04T06:43:20;100452.13;;;20.85;38.49
30708;BME280;17458;48.958;8.284;2023-06-04T06:46:04;100454.13;;;21.09;38.67
30708;BME280;17458;48.958;8.284;2023-06-04T06:48:48;100453.69;;;21.61;37.97
30708;BME280;17458;48.958;8.284;2023-06-04T06:51:32;100459.16;;;21.70;37.85
30708;BME280;17458;48.958;8.284;2023-06-04T06:54:16;100466.69;;;22.16;36.83
30708;BME280;17458;48.958;8.284;2023-06-04T06:57:00;100469.53;;;21.18;37.10
30708;BME280;17458;48.958;8.284;2023-06-04T06:59:46;100460.22;;;21.98;37.93
30708;BME280;17458;48.958;8.284;2023-06-04T07:02:30;100456.75;;;22.21;36.64
30708;BME280;17458;48.958;8.284;2023-06-04T07:05:15;100461.19;;;22.06;36.34
30708;BME280;17458;48.958;8.284;2023-06-04T07:08:01;100459.56;;;22.40;35.93
30708;BME280;17458;48.958;8.284;2023-06-04T07:10:45;100459.69;;;22.79;35.69
30708;BME280;17458;48.958;8.284;2023-06-04T07:13:29;100464.22;;;22.89;35.01
30708;BME280;17458;48.958;8.284;2023-06-04T07:16:16;100469.66;;;23.06;35.83
30708;BME280;17458;48.958;8.284;2023-06-04T07:19:01;100479.59;;;23.06;35.72
30708;BME280;17458;48.958;8.284;2023-06-04T07:21:45;100464.28;;;23.14;35.30
30708;BME280;17458;48.958;8.284;2023-06-04T07:24:29;100477.81;;;23.11;36.05
30708;BME280;17458;48.958;8.284;2023-06-04T07:27:14;100475.97;;;22.93;35.81
30708;BME280;17458;48.958;8.284;2023-06-04T07:29:58;100484.13;;;23.20;35.82
30708;BME280;17458;48.958;8.284;2023-06-04T07:32:47;100476.91;;;23.09;35.88
30708;BME280;17458;48.958;8.284;2023-06-04T07:35:31;100481.34;;;22.76;35.91
30708;BME280;17458;48.958;8.284;2023-06-04T07:38:15;100481.31;;;22.72;36.63
30708;BME280;17458;48.958;8.284;2023-06-04T07:40:59;100483.25;;;23.24;35.72
30708;BME280;17458;48.958;8.284;2023-06-04T07:43:43;100476.00;;;23.46;35.99
30708;BME280;17458;48.958;8.284;2023-06-04T07:46:27;100483.19;;;24.11;35.25
30708;BME280;17458;48.958;8.284;2023-06-04T07:49:11;100476.78;;;24.35;34.64
30708;BME280;17458;48.958;8.284;2023-06-04T07:51:55;100477.63;;;24.43;34.63
30708;BME280;17458;48.958;8.284;2023-06-04T07:54:39;100469.72;;;23.64;35.75
30708;BME280;17458;48.958;8.284;2023-06-04T07:57:25;100471.41;;;24.09;35.21
30708;BME280;17458;48.958;8.284;2023-06-04T08:00:09;100463.97;;;24.64;34.51
30708;BME280;17458;48.958;8.284;2023-06-04T08:02:58;100471.41;;;24.26;35.96
30708;BME280;17458;48.958;8.284;2023-06-04T08:05:42;100462.38;;;24.04;35.88
30708;BME280;17458;48.958;8.284;2023-06-04T08:08:26;100473.31;;;23.66;35.23
30708;BME280;17458;48.958;8.284;2023-06-04T08:11:14;100468.66;;;24.29;34.54
30708;BME280;17458;48.958;8.284;2023-06-04T08:14:00;100470.88;;;25.20;34.57
30708;BME280;17458;48.958;8.284;2023-06-04T08:16:44;100464.88;;;24.62;33.42
30708;BME280;17458;48.958;8.284;2023-06-04T08:19:28;100473.34;;;23.55;35.17
30708;BME280;17458;48.958;8.284;2023-06-04T08:22:12;100467.69;;;24.45;35.03
30708;BME280;17458;48.958;8.284;2023-06-04T08:24:56;100471.28;;;24.55;33.80
30708;BME280;17458;48.958;8.284;2023-06-04T08:27:41;100464.72;;;24.92;33.63
30708;BME280;17458;48.958;8.284;2023-06-04T08:30:25;100468.97;;;25.33;34.38
30708;BME280;17458;48.958;8.284;2023-06-04T08:33:11;100468.41;;;24.79;34.31
30708;BME280;17458;48.958;8.284;2023-06-04T08:35:55;100462.75;;;25.16;34.38
30708;BME280;17458;48.958;8.284;2023-06-04T08:38:40;100460.94;;;25.19;34.26
30708;BME280;17458;48.958;8.284;2023-06-04T08:41:28;100467.81;;;25.64;34.36
30708;BME280;17458;48.958;8.284;2023-06-04T08:44:18;100463.97;;;24.66;34.42
30708;BME280;17458;48.958;8.284;2023-06-04T08:47:04;100471.31;;;24.46;35.41
30708;BME280;17458;48.958;8.284;2023-06-04T08:49:50;100471.06;;;24.96;34.61
30708;BME280;17458;48.958;8.284;2023-06-04T08:52:35;100479.13;;;25.08;35.03
30708;BME280;17458;48.958;8.284;2023-06-04T08:55:19;100476.09;;;25.46;34.14
30708;BME280;17458;48.958;8.284;2023-06-04T08:58:05;100484.06;;;25.70;33.89
30708;BME280;17458;48.958;8.284;2023-06-04T09:00:49;100487.97;;;25.39;34.14
30708;BME280;17458;48.958;8.284;2023-06-04T09:03:36;100479.19;;;24.93;34.50
30708;BME280;17458;48.958;8.284;2023-06-04T09:06:24;100488.66;;;25.59;34.50
30708;BME280;17458;48.958;8.284;2023-06-04T09:09:09;100479.59;;;25.68;33.85
30708;BME280;17458;48.958;8.284;2023-06-04T09:11:56;100482.22;;;25.74;34.12
30708;BME280;17458;48.958;8.284;2023-06-04T09:14:43;100491.78;;;26.11;33.65
30708;BME280;17458;48.958;8.284;2023-06-04T09:17:28;100488.13;;;26.16;33.72
30708;BME280;17458;48.958;8.284;2023-06-04T09:20:22;100483.25;;;25.58;33.47
30708;BME280;17458;48.958;8.284;2023-06-04T09:23:13;100494.13;;;25.64;34.24
30708;BME280;17458;48.958;8.284;2023-06-04T09:26:06;100487.78;;;25.57;33.90
30708;BME280;17458;48.958;8.284;2023-06-04T09:28:51;100491.81;;;25.09;33.95
30708;BME280;17458;48.958;8.284;2023-06-04T09:31:39;100488.34;;;24.81;34.86
30708;BME280;17458;48.958;8.284;2023-06-04T09:34:28;100484.16;;;25.57;34.85
30708;BME280;17458;48.958;8.284;2023-06-04T09:37:16;100490.22;;;25.91;32.83
30708;BME280;17458;48.958;8.284;2023-06-04T09:40:03;100490.03;;;26.09;33.43
30708;BME280;17458;48.958;8.284;2023-06-04T09:42:50;100483.88;;;25.92;33.93
30708;BME280;17458;48.958;8.284;2023-06-04T09:45:41;100487.56;;;26.64;32.12
30708;BME280;17458;48.958;8.284;2023-06-04T09:48:25;100491.41;;;27.14;32.88
30708;BME280;17458;48.958;8.284;2023-06-04T09:51:11;100479.41;;;26.63;31.18
30708;BME280;17458;48.958;8.284;2023-06-04T09:53:56;100489.03;;;26.90;31.31
30708;BME280;17458;48.958;8.284;2023-06-04T09:56:41;100494.66;;;26.77;31.25
30708;BME280;17458;48.958;8.284;2023-06-04T09:59:25;100491.41;;;26.48;32.26
30708;BME280;17458;48.958;8.284;2023-06-04T10:02:11;100494.47;;;26.94;30.38
30708;BME280;17458;48.958;8.284;2023-06-04T10:04:56;100486.34;;;26.85;30.42
30708;BME280;17458;48.958;8.284;2023-06-04T10:07:44;100486.31;;;26.14;30.78
30708;BME280;17458;48.958;8.284;2023-06-04T10:10:29;100483.97;;;25.81;31.70
30708;BME280;17458;48.958;8.284;2023-06-04T10:13:18;100485.66;;;25.96;31.22
30708;BME280;17458;48.958;8.284;2023-06-04T10:16:02;100483.53;;;26.24;31.12
30708;BME280;17458;48.958;8.284;2023-06-04T10:18:47;100481.06;;;26.76;31.82
30708;BME280;17458;48.958;8.284;2023-06-04T10:21:33;100477.22;;;26.91;30.46
30708;BME280;17458;48.958;8.284;2023-06-04T10:24:18;100471.56;;;27.04;30.22
30708;BME280;17458;48.958;8.284;2023-06-04T10:27:06;100469.19;;;26.80;30.04
30708;BME280;17458;48.958;8.284;2023-06-04T10:29:55;100478.50;;;26.62;30.20
30708;BME280;17458;48.958;8.284;2023-06-04T10:32:40;100469.88;;;26.96;30.09
30708;BME280;17458;48.958;8.284;2023-06-04T10:35:35;100471.69;;;27.52;29.94
30708;BME280;17458;48.958;8.284;2023-06-04T10:38:19;100456.84;;;27.16;29.76
30708;BME280;17458;48.958;8.284;2023-06-04T10:41:13;100460.47;;;27.16;30.07
30708;BME280;17458;48.958;8.284;2023-06-04T10:44:01;100469.09;;;27.97;29.06
30708;BME280;17458;48.958;8.284;2023-06-04T10:46:45;100466.91;;;27.66;30.23
30708;BME280;17458;48.958;8.284;2023-06-04T10:49:30;100464.66;;;27.91;28.97
30708;BME280;17458;48.958;8.284;2023-06-04T10:52:18;100461.97;;;27.90;28.75
30708;BME280;17458;48.958;8.284;2023-06-04T10:55:06;100461.09;;;27.35;28.97
30708;BME280;17458;48.958;8.284;2023-06-04T10:57:54;100468.09;;;28.02;29.33
30708;BME280;17458;48.958;8.284;2023-06-04T11:00:44;100461.72;;;28.02;28.58
30708;BME280;17458;48.958;8.284;2023-06-04T11:03:37;100461.13;;;28.32;28.74
30708;BME280;17458;48.958;8.284;2023-06-04T11:06:22;100453.88;;;28.31;29.43
30708;BME280;17458;48.958;8.284;2023-06-04T11:09:06;100450.09;;;27.92;28.69
30708;BME280;17458;48.958;8.284;2023-06-04T11:11:58;100454.22;;;28.57;29.63
30708;BME280;17458;48.958;8.284;2023-06-04T11:14:56;100455.47;;;28.41;29.75
30708;BME280;17458;48.958;8.284;2023-06-04T11:17:54;100454.16;;;28.16;29.36
30708;BME280;17458;48.958;8.284;2023-06-04T11:20:38;100457.88;;;28.12;27.30
30708;BME280;17458;48.958;8.284;2023-06-04T11:23:22;100453.97;;;27.24;27.54
30708;BME280;17458;48.958;8.284;2023-06-04T11:26:06;100447.38;;;27.91;29.89
30708;BME280;17458;48.958;8.284;2023-06-04T11:28:51;100447.78;;;27.69;27.96
30708;BME280;17458;48.958;8.284;2023-06-04T11:31:48;100456.22;;;28.03;27.83
30708;BME280;17458;48.958;8.284;2023-06-04T11:34:32;100453.13;;;28.23;26.95
30708;BME280;17458;48.958;8.284;2023-06-04T11:37:17;100444.34;;;28.50;27.32
30708;BME280;17458;48.958;8.284;2023-06-04T11:40:01;100443.94;;;29.09;26.47
30708;BME280;17458;48.958;8.284;2023-06-04T11:42:47;100436.66;;;28.68;26.75
30708;BME280;17458;48.958;8.284;2023-06-04T11:45:31;100442.81;;;28.36;27.04
30708;BME280;17458;48.958;8.284;2023-06-04T11:48:16;100452.38;;;28.58;25.32
30708;BME280;17458;48.958;8.284;2023-06-04T11:51:05;100449.38;;;28.29;25.66
30708;BME280;17458;48.958;8.284;2023-06-04T11:53:50;100448.06;;;28.02;25.63
30708;BME280;17458;48.958;8.284;2023-06-04T11:56:34;100447.94;;;28.08;26.35
30708;BME280;17458;48.958;8.284;2023-06-04T11:59:19;100447.50;;;27.83;26.52
30708;BME280;17458;48.958;8.284;2023-06-04T12:02:03;100441.03;;;27.90;27.40
30708;BME280;17458;48.958;8.284;2023-06-04T12:04:47;100433.81;;;28.32;26.87
30708;BME280;17458;48.958;8.284;2023-06-04T12:07:31;100438.19;;;28.41;25.70
30708;BME280;17458;48.958;8.284;2023-06-04T12:10:15;100434.25;;;28.54;25.30
30708;BME280;17458;48.958;8.284;2023-06-04T12:13:00;100434.63;;;28.36;25.90
30708;BME280;17458;48.958;8.284;2023-06-04T12:15:51;100426.78;;;29.02;25.86
30708;BME280;17458;48.958;8.284;2023-06-04T12:18:35;100423.91;;;28.68;25.08
30708;BME280;17458;48.958;8.284;2023-06-04T12:21:24;100418.31;;;28.74;25.98
30708;BME280;17458;48.958;8.284;2023-06-04T12:24:14;100427.56;;;28.67;26.44
30708;BME280;17458;48.958;8.284;2023-06-04T12:27:07;100421.03;;;28.34;25.75
30708;BME280;17458;48.958;8.284;2023-06-04T12:32:44;100427.84;;;28.55;26.01
30708;BME280;17458;48.958;8.284;2023-06-04T12:35:28;100424.91;;;29.04;25.43
30708;BME280;17458;48.958;8.284;2023-06-04T12:38:12;100418.25;;;28.77;24.83
30708;BME280;17458;48.958;8.284;2023-06-04T12:40:56;100421.44;;;28.56;25.53
30708;BME280;17458;48.958;8.284;2023-06-04T12:43:40;100425.91;;;29.00;26.00
30708;BME280;17458;48.958;8.284;2023-06-04T12:46:24;100426.44;;;28.77;25.32
30708;BME280;17458;48.958;8.284;2023-06-04T12:49:08;100422.69;;;28.83;26.04
30708;BME280;17458;48.958;8.284;2023-06-04T12:51:53;100426.59;;;29.47;26.63
30708;BME280;17458;48.958;8.284;2023-06-04T12:54:37;100420.19;;;29.11;25.66
30708;BME280;17458;48.958;8.284;2023-06-04T12:57:21;100412.25;;;29.36;26.02
30708;BME280;17458;48.958;8.284;2023-06-04T13:00:05;100411.75;;;28.83;25.15
30708;BME280;17458;48.958;8.284;2023-06-04T13:02:51;100407.28;;;28.79;25.39
30708;BME280;17458;48.958;8.284;2023-06-04T13:05:36;100400.09;;;28.73;25.25
30708;BME280;17458;48.958;8.284;2023-06-04T13:08:23;100413.97;;;28.22;25.74
30708;BME280;17458;48.958;8.284;2023-06-04T13:11:07;100408.38;;;28.70;25.17
30708;BME280;17458;48.958;8.284;2023-06-04T13:13:51;100410.38;;;29.38;25.16
30708;BME280;17458;48.958;8.284;2023-06-04T13:16:36;100413.59;;;29.19;25.87
30708;BME280;17458;48.958;8.284;2023-06-04T13:19:20;100408.28;;;29.13;25.60
30708;BME280;17458;48.958;8.284;2023-06-04T13:22:07;100410.72;;;28.88;25.45
30708;BME280;17458;48.958;8.284;2023-06-04T13:24:53;100407.34;;;28.76;25.45
30708;BME280;17458;48.958;8.284;2023-06-04T13:27:37;100406.88;;;28.96;25.38
30708;BME280;17458;48.958;8.284;2023-06-04T13:30:21;100409.78;;;29.25;25.22
30708;BME280;17458;48.958;8.284;2023-06-04T13:33:06;100410.03;;;29.51;25.60
30708;BME280;17458;48.958;8.284;2023-06-04T13:35:50;100407.97;;;29.61;28.05
30708;BME280;17458;48.958;8.284;2023-06-04T13:38:34;100407.28;;;29.53;25.63
30708;BME280;17458;48.958;8.284;2023-06-04T13:41:18;100403.41;;;28.89;26.30
30708;BME280;17458;48.958;8.284;2023-06-04T13:44:02;100397.56;;;29.04;25.94
30708;BME280;17458;48.958;8.284;2023-06-04T13:46:46;100407.91;;;29.62;25.79
30708;BME280;17458;48.958;8.284;2023-06-04T13:49:34;100401.97;;;30.13;25.45
30708;BME280;17458;48.958;8.284;2023-06-04T13:52:18;100407.09;;;29.91;25.69
30708;BME280;17458;48.958;8.284;2023-06-04T13:55:02;100403.06;;;30.37;25.08
30708;BME280;17458;48.958;8.284;2023-06-04T13:57:47;100404.13;;;30.02;24.16
30708;BME280;17458;48.958;8.284;2023-06-04T14:00:31;100397.19;;;28.82;26.03
30708;BME280;17458;48.958;8.284;2023-06-04T14:03:15;100392.88;;;29.46;26.22
30708;BME280;17458;48.958;8.284;2023-06-04T14:05:59;100380.28;;;29.04;25.80
30708;BME280;17458;48.958;8.284;2023-06-04T14:08:43;100381.06;;;29.44;26.81
30708;BME280;17458;48.958;8.284;2023-06-04T14:11:27;100385.88;;;29.33;26.43
30708;BME280;17458;48.958;8.284;2023-06-04T14:14:11;100382.56;;;29.56;25.16
30708;BME280;17458;48.958;8.284;2023-06-04T14:16:55;100375.50;;;29.47;25.35
30708;BME280;17458;48.958;8.284;2023-06-04T14:19:39;100379.88;;;28.82;25.46
30708;BME280;17458;48.958;8.284;2023-06-04T14:22:23;100383.63;;;29.50;24.99
30708;BME280;17458;48.958;8.284;2023-06-04T14:25:08;100390.41;;;29.70;27.03
30708;BME280;17458;48.958;8.284;2023-06-04T14:27:52;100382.56;;;29.88;25.17
30708;BME280;17458;48.958;8.284;2023-06-04T14:30:36;100385.47;;;30.15;24.37